Terminal Aerodrome Forecast
Issued by NWS

Home | Current Version | Previous Version | Graphics & Text | Print | Product List | Glossary On
Versions: 1 2 3 4 5 6 7 8 9 10 11 12 13 14 15 16 17 18 19 20 21
497
FTUS42 KMHX 230535
TAFISO
TAF
KISO 230535Z 2306/2406 36005KT P6SM BKN040
     FM230800 VRB04KT P6SM BKN030
     FM230900 VRB04KT P6SM BKN020
     FM231100 34005KT P6SM VCSH BKN007
     FM231500 34005KT P6SM VCTS BKN025CB
     FM231800 35010KT P6SM VCTS BKN035CB
     FM232300 34004KT P6SM OVC050
      AMD LTD TO CLD VIS AND WIND=

USA.gov is the U.S. government's official web portal to all federal, state and local government web resources and services.